createdAt,value
2022-11-29T00:00:07.892Z,0.05
2022-11-29T00:05:06.246Z,0.04
2022-11-29T00:10:06.089Z,0.05
2022-11-29T00:15:05.563Z,0.05
2022-11-29T00:20:06.030Z,0.05
2022-11-29T00:25:05.082Z,0.04
2022-11-29T00:30:04.904Z,0.05
2022-11-29T00:35:11.701Z,0.05
2022-11-29T00:40:04.568Z,0.05
2022-11-29T00:45:04.457Z,0.05
2022-11-29T00:50:04.586Z,0.05
2022-11-29T00:55:02.163Z,0.04
2022-11-29T00:59:32.912Z,0.04
2022-11-29T01:04:32.737Z,0.05
2022-11-29T01:09:32.538Z,0.05
2022-11-29T01:14:32.156Z,0.05
2022-11-29T01:19:34.032Z,0.05
2022-11-29T01:24:33.732Z,0.05
2022-11-29T01:29:32.098Z,0.05
2022-11-29T01:34:31.678Z,0.05
2022-11-29T01:39:31.867Z,0.05
2022-11-29T01:44:31.439Z,0.05
2022-11-29T01:49:30.784Z,0.05
2022-11-29T01:54:30.574Z,0.05
2022-11-29T01:59:09.057Z,0.04
2022-11-29T02:04:09.387Z,0.05
2022-11-29T02:09:10.259Z,0.05
2022-11-29T02:14:08.901Z,0.05
2022-11-29T02:19:07.758Z,0.05
2022-11-29T02:24:07.566Z,0.05
2022-11-29T02:29:07.053Z,0.05
2022-11-29T02:34:06.939Z,0.04
2022-11-29T02:39:07.323Z,0.04
2022-11-29T02:44:05.759Z,0.05
2022-11-29T02:49:05.301Z,0.04
2022-11-29T02:54:05.102Z,0.05
2022-11-29T02:58:49.217Z,0.04
2022-11-29T03:03:48.456Z,0.05
2022-11-29T03:08:47.937Z,0.04
2022-11-29T03:13:48.372Z,0.05
2022-11-29T03:18:47.981Z,0.05
2022-11-29T03:23:47.508Z,0.05
2022-11-29T03:28:45.706Z,0.05
2022-11-29T03:33:45.693Z,0.05
2022-11-29T03:38:46.367Z,0.05
2022-11-29T03:43:44.755Z,0.05
2022-11-29T03:48:44.270Z,0.05
2022-11-29T03:53:43.995Z,0.04
2022-11-29T03:58:43.743Z,0.05
2022-11-29T04:03:43.484Z,0.05
2022-11-29T04:08:43.955Z,0.05
2022-11-29T04:13:43.312Z,0.05
2022-11-29T04:18:42.164Z,0.05
2022-11-29T04:23:41.720Z,0.05
2022-11-29T04:28:42.251Z,0.05
2022-11-29T04:33:41.556Z,0.05
2022-11-29T04:38:41.489Z,0.05
2022-11-29T04:43:41.054Z,0.05
2022-11-29T04:48:40.685Z,0.05
2022-11-29T04:53:39.871Z,0.05
2022-11-29T04:58:38.320Z,0.05
2022-11-29T04:59:59.384Z,0.05
2022-11-29T05:04:59.481Z,0.04
2022-11-29T05:09:58.246Z,0.05
2022-11-29T05:14:57.722Z,0.05
2022-11-29T05:19:57.895Z,0.05
2022-11-29T05:24:57.217Z,0.05
2022-11-29T05:29:57.420Z,0.05
2022-11-29T05:34:57.494Z,0.05
2022-11-29T05:39:55.751Z,0.05
2022-11-29T05:44:55.689Z,0.05
2022-11-29T05:49:55.144Z,0.05
2022-11-29T05:54:55.388Z,0.05
2022-11-29T05:59:15.872Z,0.05
2022-11-29T06:04:17.416Z,0.05
2022-11-29T06:09:15.193Z,0.05
2022-11-29T06:14:15.605Z,0.05
2022-11-29T06:19:15.425Z,0.05
2022-11-29T06:24:15.661Z,0.05
2022-11-29T06:29:13.256Z,0.05
2022-11-29T06:34:13.162Z,0.05
2022-11-29T06:39:11.964Z,0.05
2022-11-29T06:44:11.444Z,0.06
2022-11-29T06:49:10.804Z,0.06
2022-11-29T06:54:11.536Z,0.07
2022-11-29T06:59:07.687Z,0.09
2022-11-29T07:04:08.244Z,0.13
2022-11-29T07:09:06.200Z,0.23
2022-11-29T07:14:06.521Z,0.28
2022-11-29T07:19:05.658Z,0.34
2022-11-29T07:24:06.188Z,0.37
2022-11-29T07:29:05.381Z,0.32
2022-11-29T07:34:04.875Z,0.41
2022-11-29T07:39:04.554Z,0.51
2022-11-29T07:44:04.914Z,0.61
2022-11-29T07:49:05.022Z,0.61
2022-11-29T07:54:04.851Z,0.43
2022-11-29T07:58:46.691Z,0.47
2022-11-29T08:03:46.504Z,0.52
2022-11-29T08:08:46.759Z,0.62
2022-11-29T08:13:45.769Z,0.86
2022-11-29T08:18:45.287Z,0.97
2022-11-29T08:23:45.611Z,0.78
2022-11-29T08:28:45.195Z,0.74
2022-11-29T08:33:45.897Z,0.63
2022-11-29T08:38:44.105Z,0.59
2022-11-29T08:43:44.694Z,0.43
2022-11-29T08:48:43.416Z,0.48
2022-11-29T08:53:43.656Z,0.5
2022-11-29T08:58:42.846Z,0.49
2022-11-29T09:03:42.494Z,0.56
2022-11-29T09:08:42.446Z,0.65
2022-11-29T09:13:42.829Z,0.84
2022-11-29T09:18:51.587Z,0.77
2022-11-29T09:23:42.430Z,0.91
2022-11-29T09:28:39.988Z,1.13
2022-11-29T09:33:39.617Z,1.2
2022-11-29T09:38:39.874Z,1.21
2022-11-29T09:43:39.082Z,1.33
2022-11-29T09:48:39.014Z,1.42
2022-11-29T09:53:38.774Z,1.25
2022-11-29T09:58:39.094Z,1.23
2022-11-29T10:00:01.971Z,1.24
2022-11-29T10:05:00.129Z,1.47
2022-11-29T10:09:59.410Z,1.67
2022-11-29T10:14:59.590Z,1.69
2022-11-29T10:19:59.396Z,2.25
2022-11-29T10:24:58.955Z,3.1
2022-11-29T10:29:58.635Z,3.56
2022-11-29T10:34:58.270Z,3.92
2022-11-29T10:39:58.856Z,4.51
2022-11-29T10:44:58.527Z,4.17
2022-11-29T10:49:58.593Z,3.29
2022-11-29T10:54:55.753Z,4.48
2022-11-29T10:59:16.013Z,5.3
2022-11-29T11:04:16.235Z,4.07
2022-11-29T11:09:15.509Z,3.81
2022-11-29T11:14:15.041Z,3.2
2022-11-29T11:19:14.459Z,3.54
2022-11-29T11:24:14.713Z,3
2022-11-29T11:29:15.023Z,3.18
2022-11-29T11:34:13.543Z,4.88
2022-11-29T11:39:13.335Z,5.28
2022-11-29T11:44:48.822Z,4.31
2022-11-29T11:49:13.373Z,3.61
2022-11-29T11:54:12.815Z,3.32
2022-11-29T11:59:06.660Z,3.39
2022-11-29T12:04:06.651Z,2.56
2022-11-29T12:09:05.586Z,2.55
2022-11-29T12:14:06.110Z,3.39
2022-11-29T12:19:05.541Z,2.68
2022-11-29T12:24:03.936Z,2.33
2022-11-29T12:29:03.288Z,2.37
2022-11-29T12:34:03.544Z,1.63
2022-11-29T12:39:02.450Z,1.33
2022-11-29T12:44:02.128Z,1.31
2022-11-29T12:49:01.280Z,1.32
2022-11-29T12:54:01.288Z,1.13
2022-11-29T12:58:48.136Z,1.43
2022-11-29T13:03:46.113Z,1.85
2022-11-29T13:08:43.812Z,2.15
2022-11-29T13:13:43.468Z,1.62
2022-11-29T13:18:43.337Z,1.14
2022-11-29T13:24:11.418Z,0.83
2022-11-29T13:28:42.203Z,0.64
2022-11-29T13:33:41.803Z,0.67
2022-11-29T13:38:41.978Z,0.65
2022-11-29T13:43:41.975Z,0.92
2022-11-29T13:48:41.248Z,0.94
2022-11-29T13:53:41.828Z,0.67
2022-11-29T13:58:34.673Z,0.67
2022-11-29T14:03:34.505Z,0.7
2022-11-29T14:09:20.877Z,0.69
2022-11-29T14:13:34.766Z,0.65
2022-11-29T14:18:34.721Z,0.82
2022-11-29T14:23:34.626Z,0.7
2022-11-29T14:28:34.132Z,0.6
2022-11-29T14:33:33.163Z,0.58
2022-11-29T14:38:33.741Z,0.54
2022-11-29T14:43:33.412Z,0.47
2022-11-29T14:48:32.767Z,0.42
2022-11-29T14:53:33.149Z,0.43
2022-11-29T14:58:33.854Z,0.37
2022-11-29T14:59:55.089Z,0.35
2022-11-29T15:04:54.931Z,0.3
2022-11-29T15:09:54.781Z,0.21
2022-11-29T15:14:53.924Z,0.17
2022-11-29T15:19:53.523Z,0.14
2022-11-29T15:24:53.056Z,0.12
2022-11-29T15:29:52.891Z,0.11
2022-11-29T15:34:53.404Z,0.09
2022-11-29T15:39:52.660Z,0.07
2022-11-29T15:44:51.153Z,0.06
2022-11-29T15:49:49.801Z,0.05
2022-11-29T15:54:50.601Z,0.05
2022-11-29T15:58:52.765Z,0.05
2022-11-29T16:03:52.587Z,0.05
2022-11-29T16:08:51.835Z,0.05
2022-11-29T16:13:51.915Z,0.05
2022-11-29T16:18:52.749Z,0.05
2022-11-29T16:23:53.458Z,0.05
2022-11-29T16:28:50.269Z,0.05
2022-11-29T16:33:48.937Z,0.05
2022-11-29T16:38:48.990Z,0.05
2022-11-29T16:43:48.114Z,0.05
2022-11-29T16:48:47.784Z,0.05
2022-11-29T16:53:47.588Z,0.05
2022-11-29T16:59:29.868Z,0.05
2022-11-29T17:03:47.412Z,0.05
2022-11-29T17:08:46.920Z,0.05
2022-11-29T17:13:44.895Z,0.05
2022-11-29T17:18:44.538Z,0.05
2022-11-29T17:23:44.760Z,0.05
2022-11-29T17:28:43.753Z,0.05
2022-11-29T17:33:43.144Z,0.05
2022-11-29T17:38:43.156Z,0.05
2022-11-29T17:43:42.724Z,0.05
2022-11-29T17:48:42.936Z,0.05
2022-11-29T17:53:41.431Z,0.05
2022-11-29T17:58:40.464Z,0.05
2022-11-29T18:00:02.288Z,0.05
2022-11-29T18:05:01.149Z,0.05
2022-11-29T18:10:00.194Z,0.05
2022-11-29T18:15:00.019Z,0.05
2022-11-29T18:19:59.630Z,0.05
2022-11-29T18:25:40.952Z,0.05
2022-11-29T18:30:00.091Z,0.05
2022-11-29T18:34:58.411Z,0.05
2022-11-29T18:39:58.867Z,0.05
2022-11-29T18:45:01.286Z,0.05
2022-11-29T18:49:58.004Z,0.05
2022-11-29T18:54:57.258Z,0.05
2022-11-29T18:59:18.507Z,0.05
2022-11-29T19:04:17.957Z,0.05
2022-11-29T19:09:17.905Z,0.05
2022-11-29T19:14:17.931Z,0.05
2022-11-29T19:19:17.961Z,0.05
2022-11-29T19:24:16.162Z,0.05
2022-11-29T19:29:14.986Z,0.05
2022-11-29T19:34:35.559Z,0.05
2022-11-29T19:39:14.149Z,0.05
